sensor_id;sensor_type;location;lat;lon;timestamp;P1;durP1;ratioP1;P2;durP2;ratioP2
37777;SDS011;23615;51.506;7.678;2023-07-31T00:02:14;2.97;;;1.10;;
37777;SDS011;23615;51.506;7.678;2023-07-31T00:04:39;2.67;;;1.10;;
37777;SDS011;23615;51.506;7.678;2023-07-31T00:07:26;1.27;;;0.77;;
37777;SDS011;23615;51.506;7.678;2023-07-31T00:10:15;1.73;;;0.90;;
37777;SDS011;23615;51.506;7.678;2023-07-31T00:12:42;2.20;;;0.90;;
37777;SDS011;23615;51.506;7.678;2023-07-31T00:15:08;2.07;;;0.83;;
37777;SDS011;23615;51.506;7.678;2023-07-31T00:17:34;3.40;;;0.90;;
37777;SDS011;23615;51.506;7.678;2023-07-31T00:20:00;1.48;;;0.90;;
37777;SDS011;23615;51.506;7.678;2023-07-31T00:22:25;1.80;;;1.20;;
37777;SDS011;23615;51.506;7.678;2023-07-31T00:24:50;1.83;;;0.93;;
37777;SDS011;23615;51.506;7.678;2023-07-31T00:27:16;2.87;;;1.00;;
37777;SDS011;23615;51.506;7.678;2023-07-31T00:29:41;2.90;;;1.10;;
37777;SDS011;23615;51.506;7.678;2023-07-31T00:32:06;2.77;;;1.07;;
37777;SDS011;23615;51.506;7.678;2023-07-31T00:34:32;2.08;;;0.70;;
37777;SDS011;23615;51.506;7.678;2023-07-31T00:36:57;2.23;;;0.90;;
37777;SDS011;23615;51.506;7.678;2023-07-31T00:39:23;2.03;;;0.73;;
37777;SDS011;23615;51.506;7.678;2023-07-31T00:41:48;3.47;;;1.20;;
37777;SDS011;23615;51.506;7.678;2023-07-31T00:44:13;2.73;;;1.10;;
37777;SDS011;23615;51.506;7.678;2023-07-31T00:46:38;2.17;;;1.03;;
37777;SDS011;23615;51.506;7.678;2023-07-31T00:49:04;2.77;;;1.00;;
37777;SDS011;23615;51.506;7.678;2023-07-31T00:51:30;2.42;;;1.00;;
37777;SDS011;23615;51.506;7.678;2023-07-31T00:53:56;2.43;;;1.20;;
37777;SDS011;23615;51.506;7.678;2023-07-31T00:56:21;2.95;;;0.95;;
37777;SDS011;23615;51.506;7.678;2023-07-31T00:58:47;2.15;;;1.02;;
37777;SDS011;23615;51.506;7.678;2023-07-31T01:01:12;3.37;;;1.20;;
37777;SDS011;23615;51.506;7.678;2023-07-31T01:03:38;3.13;;;0.95;;
37777;SDS011;23615;51.506;7.678;2023-07-31T01:09:29;3.78;;;1.33;;
37777;SDS011;23615;51.506;7.678;2023-07-31T01:11:53;3.22;;;1.40;;
37777;SDS011;23615;51.506;7.678;2023-07-31T01:14:22;3.10;;;1.20;;
37777;SDS011;23615;51.506;7.678;2023-07-31T01:16:47;3.50;;;1.33;;
37777;SDS011;23615;51.506;7.678;2023-07-31T01:19:13;4.60;;;1.83;;
37777;SDS011;23615;51.506;7.678;2023-07-31T01:21:53;4.63;;;1.73;;
37777;SDS011;23615;51.506;7.678;2023-07-31T01:27:21;5.45;;;1.85;;
37777;SDS011;23615;51.506;7.678;2023-07-31T01:32:35;6.07;;;2.00;;
37777;SDS011;23615;51.506;7.678;2023-07-31T01:35:04;4.90;;;1.70;;
37777;SDS011;23615;51.506;7.678;2023-07-31T01:37:30;5.65;;;2.22;;
37777;SDS011;23615;51.506;7.678;2023-07-31T01:39:56;6.80;;;2.37;;
37777;SDS011;23615;51.506;7.678;2023-07-31T01:42:21;4.80;;;2.63;;
37777;SDS011;23615;51.506;7.678;2023-07-31T01:44:46;5.65;;;2.55;;
37777;SDS011;23615;51.506;7.678;2023-07-31T01:47:12;7.53;;;2.73;;
37777;SDS011;23615;51.506;7.678;2023-07-31T01:49:37;5.87;;;2.20;;
37777;SDS011;23615;51.506;7.678;2023-07-31T01:52:02;6.18;;;2.58;;
37777;SDS011;23615;51.506;7.678;2023-07-31T01:54:28;4.97;;;2.15;;
37777;SDS011;23615;51.506;7.678;2023-07-31T01:56:53;5.97;;;2.00;;
37777;SDS011;23615;51.506;7.678;2023-07-31T01:59:18;5.43;;;2.60;;
37777;SDS011;23615;51.506;7.678;2023-07-31T02:01:44;5.83;;;2.13;;
37777;SDS011;23615;51.506;7.678;2023-07-31T02:04:09;8.60;;;2.00;;
37777;SDS011;23615;51.506;7.678;2023-07-31T02:06:34;4.57;;;2.20;;
37777;SDS011;23615;51.506;7.678;2023-07-31T02:09:00;6.57;;;2.10;;
37777;SDS011;23615;51.506;7.678;2023-07-31T02:11:25;5.33;;;1.80;;
37777;SDS011;23615;51.506;7.678;2023-07-31T02:13:50;4.83;;;1.97;;
37777;SDS011;23615;51.506;7.678;2023-07-31T02:16:15;4.83;;;2.00;;
37777;SDS011;23615;51.506;7.678;2023-07-31T02:18:41;5.60;;;1.63;;
37777;SDS011;23615;51.506;7.678;2023-07-31T02:21:06;4.87;;;2.03;;
37777;SDS011;23615;51.506;7.678;2023-07-31T02:23:31;6.83;;;1.70;;
37777;SDS011;23615;51.506;7.678;2023-07-31T02:25:56;6.20;;;2.57;;
37777;SDS011;23615;51.506;7.678;2023-07-31T02:28:22;5.93;;;2.22;;
37777;SDS011;23615;51.506;7.678;2023-07-31T02:30:49;5.32;;;1.90;;
37777;SDS011;23615;51.506;7.678;2023-07-31T02:33:15;4.90;;;1.95;;
37777;SDS011;23615;51.506;7.678;2023-07-31T02:35:41;4.18;;;1.85;;
37777;SDS011;23615;51.506;7.678;2023-07-31T02:38:06;5.50;;;2.07;;
37777;SDS011;23615;51.506;7.678;2023-07-31T02:40:32;4.73;;;2.30;;
37777;SDS011;23615;51.506;7.678;2023-07-31T02:42:57;3.27;;;1.73;;
37777;SDS011;23615;51.506;7.678;2023-07-31T02:45:22;4.83;;;1.77;;
37777;SDS011;23615;51.506;7.678;2023-07-31T02:47:47;5.70;;;2.10;;
37777;SDS011;23615;51.506;7.678;2023-07-31T02:50:13;3.77;;;1.70;;
37777;SDS011;23615;51.506;7.678;2023-07-31T02:52:38;6.03;;;1.80;;
37777;SDS011;23615;51.506;7.678;2023-07-31T02:55:03;4.93;;;1.95;;
37777;SDS011;23615;51.506;7.678;2023-07-31T02:57:29;7.00;;;1.97;;
37777;SDS011;23615;51.506;7.678;2023-07-31T02:59:54;6.50;;;1.80;;
37777;SDS011;23615;51.506;7.678;2023-07-31T03:02:19;4.80;;;1.83;;
37777;SDS011;23615;51.506;7.678;2023-07-31T03:04:45;5.73;;;1.90;;
37777;SDS011;23615;51.506;7.678;2023-07-31T03:07:10;5.83;;;2.00;;
37777;SDS011;23615;51.506;7.678;2023-07-31T03:09:35;4.27;;;1.90;;
37777;SDS011;23615;51.506;7.678;2023-07-31T03:12:00;9.25;;;1.83;;
37777;SDS011;23615;51.506;7.678;2023-07-31T03:14:26;5.03;;;2.20;;
37777;SDS011;23615;51.506;7.678;2023-07-31T03:16:51;5.77;;;1.90;;
37777;SDS011;23615;51.506;7.678;2023-07-31T03:19:17;6.50;;;2.03;;
37777;SDS011;23615;51.506;7.678;2023-07-31T03:21:42;9.10;;;2.63;;
37777;SDS011;23615;51.506;7.678;2023-07-31T03:24:07;10.03;;;2.30;;
37777;SDS011;23615;51.506;7.678;2023-07-31T03:26:32;5.00;;;2.13;;
37777;SDS011;23615;51.506;7.678;2023-07-31T03:28:58;7.23;;;2.70;;
37777;SDS011;23615;51.506;7.678;2023-07-31T03:31:23;3.95;;;2.03;;
37777;SDS011;23615;51.506;7.678;2023-07-31T03:33:48;3.80;;;1.90;;
37777;SDS011;23615;51.506;7.678;2023-07-31T03:36:14;6.97;;;2.10;;
37777;SDS011;23615;51.506;7.678;2023-07-31T03:38:39;4.47;;;1.83;;
37777;SDS011;23615;51.506;7.678;2023-07-31T03:41:04;4.70;;;2.13;;
37777;SDS011;23615;51.506;7.678;2023-07-31T03:43:31;6.15;;;2.30;;
37777;SDS011;23615;51.506;7.678;2023-07-31T03:45:58;5.65;;;2.35;;
37777;SDS011;23615;51.506;7.678;2023-07-31T03:48:24;5.10;;;2.20;;
37777;SDS011;23615;51.506;7.678;2023-07-31T03:50:49;6.77;;;2.17;;
37777;SDS011;23615;51.506;7.678;2023-07-31T03:53:14;4.33;;;1.80;;
37777;SDS011;23615;51.506;7.678;2023-07-31T03:55:40;5.80;;;2.03;;
37777;SDS011;23615;51.506;7.678;2023-07-31T03:58:05;5.87;;;2.20;;
37777;SDS011;23615;51.506;7.678;2023-07-31T04:00:30;5.97;;;2.20;;
37777;SDS011;23615;51.506;7.678;2023-07-31T04:02:55;5.63;;;1.83;;
37777;SDS011;23615;51.506;7.678;2023-07-31T04:05:21;9.20;;;2.40;;
37777;SDS011;23615;51.506;7.678;2023-07-31T04:07:46;4.93;;;2.10;;
37777;SDS011;23615;51.506;7.678;2023-07-31T04:10:11;5.00;;;2.13;;
37777;SDS011;23615;51.506;7.678;2023-07-31T04:12:37;4.40;;;1.57;;
37777;SDS011;23615;51.506;7.678;2023-07-31T04:15:02;5.77;;;1.97;;
37777;SDS011;23615;51.506;7.678;2023-07-31T04:17:27;5.53;;;1.80;;
37777;SDS011;23615;51.506;7.678;2023-07-31T04:19:53;6.40;;;2.27;;
37777;SDS011;23615;51.506;7.678;2023-07-31T04:22:18;4.87;;;2.07;;
37777;SDS011;23615;51.506;7.678;2023-07-31T04:24:43;5.63;;;2.00;;
37777;SDS011;23615;51.506;7.678;2023-07-31T04:27:08;6.07;;;1.80;;
37777;SDS011;23615;51.506;7.678;2023-07-31T04:29:34;7.97;;;1.87;;
37777;SDS011;23615;51.506;7.678;2023-07-31T04:31:59;5.20;;;2.00;;
37777;SDS011;23615;51.506;7.678;2023-07-31T04:34:24;5.57;;;2.10;;
37777;SDS011;23615;51.506;7.678;2023-07-31T04:36:50;5.53;;;1.77;;
37777;SDS011;23615;51.506;7.678;2023-07-31T04:39:15;5.17;;;2.00;;
37777;SDS011;23615;51.506;7.678;2023-07-31T04:41:40;4.37;;;1.70;;
37777;SDS011;23615;51.506;7.678;2023-07-31T04:44:05;6.63;;;2.10;;
37777;SDS011;23615;51.506;7.678;2023-07-31T04:46:31;4.33;;;2.00;;
37777;SDS011;23615;51.506;7.678;2023-07-31T04:48:56;5.75;;;2.00;;
37777;SDS011;23615;51.506;7.678;2023-07-31T04:51:21;6.97;;;2.43;;
37777;SDS011;23615;51.506;7.678;2023-07-31T04:53:48;4.32;;;2.40;;
37777;SDS011;23615;51.506;7.678;2023-07-31T04:56:13;7.00;;;2.67;;
37777;SDS011;23615;51.506;7.678;2023-07-31T04:58:40;6.97;;;2.22;;
37777;SDS011;23615;51.506;7.678;2023-07-31T05:01:05;8.10;;;2.60;;
37777;SDS011;23615;51.506;7.678;2023-07-31T05:03:31;5.57;;;2.07;;
37777;SDS011;23615;51.506;7.678;2023-07-31T05:05:56;6.87;;;2.23;;
37777;SDS011;23615;51.506;7.678;2023-07-31T05:08:21;10.03;;;2.10;;
37777;SDS011;23615;51.506;7.678;2023-07-31T05:10:46;4.30;;;2.00;;
37777;SDS011;23615;51.506;7.678;2023-07-31T05:13:12;10.83;;;2.60;;
37777;SDS011;23615;51.506;7.678;2023-07-31T05:15:37;6.00;;;1.80;;
37777;SDS011;23615;51.506;7.678;2023-07-31T05:18:03;4.25;;;1.65;;
37777;SDS011;23615;51.506;7.678;2023-07-31T05:20:28;4.72;;;2.30;;
37777;SDS011;23615;51.506;7.678;2023-07-31T05:22:53;6.73;;;2.47;;
37777;SDS011;23615;51.506;7.678;2023-07-31T05:25:19;3.67;;;1.90;;
37777;SDS011;23615;51.506;7.678;2023-07-31T05:27:44;9.13;;;2.60;;
37777;SDS011;23615;51.506;7.678;2023-07-31T05:30:10;6.13;;;2.15;;
37777;SDS011;23615;51.506;7.678;2023-07-31T05:32:35;5.90;;;2.50;;
37777;SDS011;23615;51.506;7.678;2023-07-31T05:35:00;6.40;;;2.40;;
37777;SDS011;23615;51.506;7.678;2023-07-31T05:37:26;4.17;;;2.00;;
37777;SDS011;23615;51.506;7.678;2023-07-31T05:39:51;7.75;;;2.10;;
37777;SDS011;23615;51.506;7.678;2023-07-31T05:42:17;7.45;;;3.00;;
37777;SDS011;23615;51.506;7.678;2023-07-31T05:44:42;6.97;;;2.57;;
37777;SDS011;23615;51.506;7.678;2023-07-31T05:47:08;7.05;;;2.38;;
37777;SDS011;23615;51.506;7.678;2023-07-31T05:49:33;7.00;;;2.80;;
37777;SDS011;23615;51.506;7.678;2023-07-31T05:51:59;6.53;;;2.83;;
37777;SDS011;23615;51.506;7.678;2023-07-31T05:54:24;6.23;;;2.60;;
37777;SDS011;23615;51.506;7.678;2023-07-31T05:56:49;9.17;;;3.33;;
37777;SDS011;23615;51.506;7.678;2023-07-31T05:59:15;7.00;;;2.60;;
37777;SDS011;23615;51.506;7.678;2023-07-31T06:01:41;6.55;;;2.30;;
37777;SDS011;23615;51.506;7.678;2023-07-31T06:04:07;3.97;;;2.00;;
37777;SDS011;23615;51.506;7.678;2023-07-31T06:06:32;7.32;;;2.83;;
37777;SDS011;23615;51.506;7.678;2023-07-31T06:08:57;4.67;;;2.53;;
37777;SDS011;23615;51.506;7.678;2023-07-31T06:11:22;6.97;;;2.60;;
37777;SDS011;23615;51.506;7.678;2023-07-31T06:13:48;4.90;;;2.70;;
37777;SDS011;23615;51.506;7.678;2023-07-31T06:16:14;6.18;;;3.00;;
37777;SDS011;23615;51.506;7.678;2023-07-31T06:18:40;4.88;;;2.72;;
37777;SDS011;23615;51.506;7.678;2023-07-31T06:21:06;5.95;;;3.45;;
37777;SDS011;23615;51.506;7.678;2023-07-31T06:23:31;6.37;;;3.00;;
37777;SDS011;23615;51.506;7.678;2023-07-31T06:25:56;7.00;;;2.90;;
37777;SDS011;23615;51.506;7.678;2023-07-31T06:31:16;4.78;;;2.70;;
37777;SDS011;23615;51.506;7.678;2023-07-31T06:33:45;8.50;;;2.90;;
37777;SDS011;23615;51.506;7.678;2023-07-31T06:36:10;7.20;;;2.87;;
37777;SDS011;23615;51.506;7.678;2023-07-31T06:38:36;4.90;;;2.67;;
37777;SDS011;23615;51.506;7.678;2023-07-31T06:41:02;5.72;;;2.42;;
37777;SDS011;23615;51.506;7.678;2023-07-31T06:43:28;5.07;;;2.53;;
37777;SDS011;23615;51.506;7.678;2023-07-31T06:45:54;5.43;;;2.40;;
37777;SDS011;23615;51.506;7.678;2023-07-31T06:48:19;5.20;;;2.73;;
37777;SDS011;23615;51.506;7.678;2023-07-31T06:50:44;5.60;;;2.80;;
37777;SDS011;23615;51.506;7.678;2023-07-31T06:53:10;5.33;;;3.00;;
37777;SDS011;23615;51.506;7.678;2023-07-31T06:55:35;5.30;;;2.63;;
37777;SDS011;23615;51.506;7.678;2023-07-31T06:58:00;4.67;;;2.83;;
37777;SDS011;23615;51.506;7.678;2023-07-31T07:00:27;7.07;;;2.60;;
37777;SDS011;23615;51.506;7.678;2023-07-31T07:02:52;4.37;;;2.90;;
37777;SDS011;23615;51.506;7.678;2023-07-31T07:05:18;5.73;;;2.83;;
37777;SDS011;23615;51.506;7.678;2023-07-31T07:07:43;5.43;;;2.67;;
37777;SDS011;23615;51.506;7.678;2023-07-31T07:10:09;5.10;;;2.97;;
37777;SDS011;23615;51.506;7.678;2023-07-31T07:12:35;4.77;;;2.93;;
37777;SDS011;23615;51.506;7.678;2023-07-31T07:17:50;4.43;;;2.60;;
37777;SDS011;23615;51.506;7.678;2023-07-31T07:20:15;4.07;;;2.67;;
37777;SDS011;23615;51.506;7.678;2023-07-31T07:22:41;4.90;;;2.50;;
37777;SDS011;23615;51.506;7.678;2023-07-31T07:25:09;6.17;;;2.73;;
37777;SDS011;23615;51.506;7.678;2023-07-31T07:27:34;3.73;;;2.63;;
37777;SDS011;23615;51.506;7.678;2023-07-31T07:29:59;4.67;;;2.30;;
37777;SDS011;23615;51.506;7.678;2023-07-31T07:32:25;5.20;;;2.28;;
37777;SDS011;23615;51.506;7.678;2023-07-31T07:34:50;5.60;;;2.17;;
37777;SDS011;23615;51.506;7.678;2023-07-31T07:37:16;3.53;;;1.90;;
37777;SDS011;23615;51.506;7.678;2023-07-31T07:39:41;3.30;;;1.77;;
37777;SDS011;23615;51.506;7.678;2023-07-31T07:42:06;3.90;;;1.80;;
37777;SDS011;23615;51.506;7.678;2023-07-31T07:44:32;2.65;;;1.80;;
37777;SDS011;23615;51.506;7.678;2023-07-31T07:46:57;4.67;;;1.90;;
37777;SDS011;23615;51.506;7.678;2023-07-31T07:49:22;3.80;;;2.17;;
37777;SDS011;23615;51.506;7.678;2023-07-31T07:51:48;4.83;;;1.77;;
37777;SDS011;23615;51.506;7.678;2023-07-31T07:54:14;2.73;;;2.00;;
37777;SDS011;23615;51.506;7.678;2023-07-31T07:56:39;3.57;;;2.17;;
37777;SDS011;23615;51.506;7.678;2023-07-31T07:59:05;3.97;;;1.83;;
37777;SDS011;23615;51.506;7.678;2023-07-31T08:01:30;4.00;;;2.22;;
37777;SDS011;23615;51.506;7.678;2023-07-31T08:03:55;3.80;;;2.63;;
37777;SDS011;23615;51.506;7.678;2023-07-31T08:06:21;3.93;;;2.10;;
37777;SDS011;23615;51.506;7.678;2023-07-31T08:08:47;4.05;;;2.28;;
37777;SDS011;23615;51.506;7.678;2023-07-31T08:11:12;2.58;;;1.90;;
37777;SDS011;23615;51.506;7.678;2023-07-31T08:13:39;4.57;;;1.95;;
37777;SDS011;23615;51.506;7.678;2023-07-31T08:16:05;4.67;;;1.90;;
37777;SDS011;23615;51.506;7.678;2023-07-31T08:18:30;4.23;;;2.17;;
37777;SDS011;23615;51.506;7.678;2023-07-31T08:20:56;4.90;;;2.40;;
37777;SDS011;23615;51.506;7.678;2023-07-31T08:23:21;4.57;;;2.00;;
37777;SDS011;23615;51.506;7.678;2023-07-31T08:25:46;3.60;;;2.27;;
37777;SDS011;23615;51.506;7.678;2023-07-31T08:28:12;3.90;;;2.00;;
37777;SDS011;23615;51.506;7.678;2023-07-31T08:30:37;4.60;;;2.17;;
37777;SDS011;23615;51.506;7.678;2023-07-31T08:33:02;3.77;;;2.10;;
37777;SDS011;23615;51.506;7.678;2023-07-31T08:35:28;3.50;;;1.80;;
37777;SDS011;23615;51.506;7.678;2023-07-31T08:37:53;2.97;;;1.77;;
37777;SDS011;23615;51.506;7.678;2023-07-31T08:40:19;2.97;;;1.85;;
37777;SDS011;23615;51.506;7.678;2023-07-31T08:42:48;4.40;;;1.97;;
37777;SDS011;23615;51.506;7.678;2023-07-31T08:45:17;4.30;;;1.80;;
37777;SDS011;23615;51.506;7.678;2023-07-31T08:47:47;2.80;;;1.45;;
37777;SDS011;23615;51.506;7.678;2023-07-31T08:50:14;2.90;;;1.73;;
37777;SDS011;23615;51.506;7.678;2023-07-31T08:52:41;3.75;;;2.00;;
37777;SDS011;23615;51.506;7.678;2023-07-31T08:55:07;4.33;;;2.33;;
37777;SDS011;23615;51.506;7.678;2023-07-31T08:57:34;2.45;;;1.45;;
37777;SDS011;23615;51.506;7.678;2023-07-31T09:00:03;2.95;;;1.40;;
37777;SDS011;23615;51.506;7.678;2023-07-31T09:03:13;3.85;;;1.90;;
37777;SDS011;23615;51.506;7.678;2023-07-31T09:05:28;1.52;;;1.38;;
37777;SDS011;23615;51.506;7.678;2023-07-31T09:07:54;2.50;;;1.00;;
37777;SDS011;23615;51.506;7.678;2023-07-31T09:10:21;2.33;;;1.10;;
37777;SDS011;23615;51.506;7.678;2023-07-31T09:12:46;3.00;;;1.20;;
37777;SDS011;23615;51.506;7.678;2023-07-31T09:15:12;2.08;;;1.20;;
37777;SDS011;23615;51.506;7.678;2023-07-31T09:17:38;1.63;;;0.97;;
37777;SDS011;23615;51.506;7.678;2023-07-31T09:22:39;4.73;;;1.07;;
37777;SDS011;23615;51.506;7.678;2023-07-31T09:25:23;2.30;;;1.10;;
37777;SDS011;23615;51.506;7.678;2023-07-31T09:27:54;2.50;;;1.00;;
37777;SDS011;23615;51.506;7.678;2023-07-31T09:30:32;2.13;;;1.00;;
37777;SDS011;23615;51.506;7.678;2023-07-31T09:33:54;2.30;;;0.80;;
37777;SDS011;23615;51.506;7.678;2023-07-31T09:36:20;1.73;;;1.10;;
37777;SDS011;23615;51.506;7.678;2023-07-31T09:38:45;1.50;;;0.77;;
37777;SDS011;23615;51.506;7.678;2023-07-31T09:41:10;1.05;;;0.82;;
37777;SDS011;23615;51.506;7.678;2023-07-31T09:43:36;1.00;;;0.80;;
37777;SDS011;23615;51.506;7.678;2023-07-31T09:46:02;1.40;;;0.90;;
37777;SDS011;23615;51.506;7.678;2023-07-31T09:48:28;1.83;;;0.70;;
37777;SDS011;23615;51.506;7.678;2023-07-31T09:50:53;1.67;;;0.87;;
37777;SDS011;23615;51.506;7.678;2023-07-31T09:53:19;1.20;;;0.70;;
37777;SDS011;23615;51.506;7.678;2023-07-31T09:55:53;1.60;;;0.80;;
37777;SDS011;23615;51.506;7.678;2023-07-31T09:58:19;2.47;;;1.27;;
37777;SDS011;23615;51.506;7.678;2023-07-31T10:00:44;1.87;;;0.70;;
37777;SDS011;23615;51.506;7.678;2023-07-31T10:03:10;2.17;;;0.77;;
37777;SDS011;23615;51.506;7.678;2023-07-31T10:05:36;1.73;;;0.88;;
37777;SDS011;23615;51.506;7.678;2023-07-31T10:08:04;1.70;;;0.70;;
37777;SDS011;23615;51.506;7.678;2023-07-31T10:10:32;2.72;;;0.90;;
37777;SDS011;23615;51.506;7.678;2023-07-31T10:12:59;1.48;;;1.00;;
37777;SDS011;23615;51.506;7.678;2023-07-31T10:15:25;2.30;;;1.07;;
37777;SDS011;23615;51.506;7.678;2023-07-31T10:17:51;1.90;;;0.95;;
37777;SDS011;23615;51.506;7.678;2023-07-31T10:20:16;1.25;;;0.80;;
37777;SDS011;23615;51.506;7.678;2023-07-31T10:22:42;1.60;;;1.00;;
37777;SDS011;23615;51.506;7.678;2023-07-31T10:25:09;2.03;;;1.10;;
37777;SDS011;23615;51.506;7.678;2023-07-31T10:27:41;1.60;;;0.60;;
37777;SDS011;23615;51.506;7.678;2023-07-31T10:30:11;1.77;;;0.95;;
37777;SDS011;23615;51.506;7.678;2023-07-31T10:32:40;1.85;;;0.80;;
37777;SDS011;23615;51.506;7.678;2023-07-31T10:35:08;1.33;;;0.80;;
37777;SDS011;23615;51.506;7.678;2023-07-31T10:37:38;1.20;;;0.70;;
37777;SDS011;23615;51.506;7.678;2023-07-31T10:40:15;1.40;;;0.50;;
37777;SDS011;23615;51.506;7.678;2023-07-31T10:42:48;1.42;;;0.75;;
37777;SDS011;23615;51.506;7.678;2023-07-31T10:45:37;2.00;;;0.50;;
37777;SDS011;23615;51.506;7.678;2023-07-31T10:50:31;1.30;;;0.50;;
37777;SDS011;23615;51.506;7.678;2023-07-31T10:52:58;2.05;;;0.52;;
37777;SDS011;23615;51.506;7.678;2023-07-31T10:55:59;0.50;;;0.43;;
37777;SDS011;23615;51.506;7.678;2023-07-31T10:58:18;0.60;;;0.50;;
37777;SDS011;23615;51.506;7.678;2023-07-31T11:00:44;0.60;;;0.38;;
37777;SDS011;23615;51.506;7.678;2023-07-31T11:03:11;0.60;;;0.47;;
37777;SDS011;23615;51.506;7.678;2023-07-31T11:05:42;0.65;;;0.30;;
37777;SDS011;23615;51.506;7.678;2023-07-31T11:08:12;0.55;;;0.40;;
37777;SDS011;23615;51.506;7.678;2023-07-31T11:10:37;0.52;;;0.35;;
37777;SDS011;23615;51.506;7.678;2023-07-31T11:13:04;0.57;;;0.40;;
37777;SDS011;23615;51.506;7.678;2023-07-31T11:15:30;0.30;;;0.30;;
37777;SDS011;23615;51.506;7.678;2023-07-31T11:17:55;0.90;;;0.47;;
37777;SDS011;23615;51.506;7.678;2023-07-31T11:20:23;1.42;;;0.40;;
37777;SDS011;23615;51.506;7.678;2023-07-31T11:22:49;0.50;;;0.50;;
37777;SDS011;23615;51.506;7.678;2023-07-31T11:25:14;0.50;;;0.50;;
37777;SDS011;23615;51.506;7.678;2023-07-31T11:27:41;1.13;;;0.43;;
37777;SDS011;23615;51.506;7.678;2023-07-31T11:30:07;0.63;;;0.40;;
37777;SDS011;23615;51.506;7.678;2023-07-31T11:32:32;0.53;;;0.40;;
37777;SDS011;23615;51.506;7.678;2023-07-31T11:34:58;1.00;;;0.50;;
37777;SDS011;23615;51.506;7.678;2023-07-31T11:37:23;1.00;;;0.60;;
37777;SDS011;23615;51.506;7.678;2023-07-31T11:40:01;1.17;;;0.50;;
37777;SDS011;23615;51.506;7.678;2023-07-31T11:42:27;1.60;;;0.40;;
37777;SDS011;23615;51.506;7.678;2023-07-31T11:44:52;1.90;;;0.47;;
37777;SDS011;23615;51.506;7.678;2023-07-31T11:47:17;0.60;;;0.57;;
37777;SDS011;23615;51.506;7.678;2023-07-31T11:49:43;0.57;;;0.57;;
37777;SDS011;23615;51.506;7.678;2023-07-31T11:52:09;1.17;;;0.67;;
37777;SDS011;23615;51.506;7.678;2023-07-31T11:54:35;1.83;;;0.80;;
37777;SDS011;23615;51.506;7.678;2023-07-31T11:57:01;1.27;;;0.90;;
37777;SDS011;23615;51.506;7.678;2023-07-31T11:59:26;2.57;;;0.90;;
37777;SDS011;23615;51.506;7.678;2023-07-31T12:01:52;1.30;;;1.17;;
37777;SDS011;23615;51.506;7.678;2023-07-31T12:17:06;2.30;;;1.00;;
37777;SDS011;23615;51.506;7.678;2023-07-31T12:19:33;2.72;;;1.02;;
37777;SDS011;23615;51.506;7.678;2023-07-31T12:21:59;1.92;;;1.10;;
37777;SDS011;23615;51.506;7.678;2023-07-31T12:24:28;1.83;;;1.20;;
37777;SDS011;23615;51.506;7.678;2023-07-31T12:26:53;1.42;;;1.27;;
37777;SDS011;23615;51.506;7.678;2023-07-31T12:37:51;2.43;;;1.37;;
37777;SDS011;23615;51.506;7.678;2023-07-31T12:40:17;2.17;;;1.10;;
37777;SDS011;23615;51.506;7.678;2023-07-31T12:42:42;2.33;;;1.23;;
37777;SDS011;23615;51.506;7.678;2023-07-31T12:45:08;2.23;;;1.20;;
37777;SDS011;23615;51.506;7.678;2023-07-31T12:47:39;1.65;;;1.20;;
37777;SDS011;23615;51.506;7.678;2023-07-31T12:50:04;3.03;;;0.97;;
37777;SDS011;23615;51.506;7.678;2023-07-31T12:52:41;2.53;;;0.87;;
37777;SDS011;23615;51.506;7.678;2023-07-31T12:55:09;2.08;;;0.85;;
37777;SDS011;23615;51.506;7.678;2023-07-31T12:57:35;1.40;;;0.75;;
37777;SDS011;23615;51.506;7.678;2023-07-31T13:00:01;1.30;;;0.80;;
37777;SDS011;23615;51.506;7.678;2023-07-31T13:02:26;3.25;;;1.08;;
37777;SDS011;23615;51.506;7.678;2023-07-31T13:04:52;2.38;;;0.90;;
37777;SDS011;23615;51.506;7.678;2023-07-31T13:07:19;2.45;;;0.90;;
37777;SDS011;23615;51.506;7.678;2023-07-31T13:09:44;1.70;;;0.93;;
37777;SDS011;23615;51.506;7.678;2023-07-31T13:12:10;1.47;;;1.00;;
37777;SDS011;23615;51.506;7.678;2023-07-31T13:14:35;1.20;;;0.80;;
37777;SDS011;23615;51.506;7.678;2023-07-31T13:17:00;1.10;;;0.60;;
37777;SDS011;23615;51.506;7.678;2023-07-31T13:19:25;1.57;;;0.80;;
37777;SDS011;23615;51.506;7.678;2023-07-31T13:21:51;2.57;;;0.60;;
37777;SDS011;23615;51.506;7.678;2023-07-31T13:24:16;1.15;;;0.77;;
37777;SDS011;23615;51.506;7.678;2023-07-31T13:26:41;1.07;;;0.60;;
37777;SDS011;23615;51.506;7.678;2023-07-31T13:29:06;1.93;;;1.00;;
37777;SDS011;23615;51.506;7.678;2023-07-31T13:31:32;1.30;;;0.50;;
37777;SDS011;23615;51.506;7.678;2023-07-31T13:33:57;2.57;;;0.57;;
37777;SDS011;23615;51.506;7.678;2023-07-31T13:36:23;1.07;;;0.67;;
37777;SDS011;23615;51.506;7.678;2023-07-31T13:38:48;2.13;;;0.80;;
37777;SDS011;23615;51.506;7.678;2023-07-31T13:41:13;0.87;;;0.50;;
37777;SDS011;23615;51.506;7.678;2023-07-31T13:43:39;0.70;;;0.50;;
37777;SDS011;23615;51.506;7.678;2023-07-31T13:46:04;2.43;;;0.50;;
37777;SDS011;23615;51.506;7.678;2023-07-31T13:48:35;0.80;;;0.32;;
37777;SDS011;23615;51.506;7.678;2023-07-31T13:51:01;1.92;;;0.50;;
37777;SDS011;23615;51.506;7.678;2023-07-31T13:53:26;1.00;;;0.50;;
37777;SDS011;23615;51.506;7.678;2023-07-31T13:55:51;0.55;;;0.45;;
37777;SDS011;23615;51.506;7.678;2023-07-31T13:58:17;1.13;;;0.40;;
37777;SDS011;23615;51.506;7.678;2023-07-31T14:00:42;1.00;;;0.40;;
37777;SDS011;23615;51.506;7.678;2023-07-31T14:03:07;0.70;;;0.40;;
37777;SDS011;23615;51.506;7.678;2023-07-31T14:05:33;1.10;;;0.50;;
37777;SDS011;23615;51.506;7.678;2023-07-31T14:07:58;1.30;;;0.53;;
37777;SDS011;23615;51.506;7.678;2023-07-31T14:10:23;0.70;;;0.50;;
37777;SDS011;23615;51.506;7.678;2023-07-31T14:12:49;0.83;;;0.40;;
37777;SDS011;23615;51.506;7.678;2023-07-31T14:15:14;0.70;;;0.50;;
37777;SDS011;23615;51.506;7.678;2023-07-31T14:17:39;0.63;;;0.37;;
37777;SDS011;23615;51.506;7.678;2023-07-31T14:20:05;0.77;;;0.50;;
37777;SDS011;23615;51.506;7.678;2023-07-31T14:22:31;0.70;;;0.52;;
37777;SDS011;23615;51.506;7.678;2023-07-31T14:24:58;1.30;;;0.50;;
37777;SDS011;23615;51.506;7.678;2023-07-31T14:27:23;1.13;;;0.57;;
37777;SDS011;23615;51.506;7.678;2023-07-31T14:29:49;1.20;;;0.60;;
37777;SDS011;23615;51.506;7.678;2023-07-31T14:32:14;1.60;;;0.90;;
37777;SDS011;23615;51.506;7.678;2023-07-31T14:34:39;2.20;;;1.03;;
37777;SDS011;23615;51.506;7.678;2023-07-31T14:37:05;1.50;;;0.80;;
37777;SDS011;23615;51.506;7.678;2023-07-31T14:39:30;2.40;;;1.10;;
37777;SDS011;23615;51.506;7.678;2023-07-31T14:41:55;2.20;;;1.13;;
37777;SDS011;23615;51.506;7.678;2023-07-31T14:44:21;1.73;;;1.20;;
37777;SDS011;23615;51.506;7.678;2023-07-31T14:46:46;2.67;;;1.27;;
37777;SDS011;23615;51.506;7.678;2023-07-31T14:49:11;2.07;;;1.07;;
37777;SDS011;23615;51.506;7.678;2023-07-31T14:51:36;2.40;;;1.37;;
37777;SDS011;23615;51.506;7.678;2023-07-31T14:54:02;3.50;;;1.40;;
37777;SDS011;23615;51.506;7.678;2023-07-31T14:56:27;2.20;;;1.20;;
37777;SDS011;23615;51.506;7.678;2023-07-31T14:58:53;2.70;;;1.40;;
37777;SDS011;23615;51.506;7.678;2023-07-31T15:01:18;1.80;;;1.23;;
37777;SDS011;23615;51.506;7.678;2023-07-31T15:03:43;2.37;;;1.33;;
37777;SDS011;23615;51.506;7.678;2023-07-31T15:06:08;2.00;;;1.07;;
37777;SDS011;23615;51.506;7.678;2023-07-31T15:08:34;2.83;;;1.35;;
37777;SDS011;23615;51.506;7.678;2023-07-31T15:11:01;1.95;;;1.00;;
37777;SDS011;23615;51.506;7.678;2023-07-31T15:13:26;1.40;;;1.10;;
37777;SDS011;23615;51.506;7.678;2023-07-31T15:15:51;1.83;;;1.13;;
37777;SDS011;23615;51.506;7.678;2023-07-31T15:18:17;3.20;;;1.40;;
37777;SDS011;23615;51.506;7.678;2023-07-31T15:20:42;2.20;;;1.50;;
37777;SDS011;23615;51.506;7.678;2023-07-31T15:23:07;2.27;;;1.40;;
37777;SDS011;23615;51.506;7.678;2023-07-31T15:25:33;1.67;;;0.80;;